Time;durP1;ratioP1;P1;durP2;ratioP2;P2;SDS_P1;SDS_P2;PMS_P1;PMS_P2;Temp;Humidity;BMP_temperature;BMP_pressure;BME280_temperature;BME280_humidity;BME280_pressure;Samples;Min_cycle;Max_cycle;Signal;HPM_P1;HPM_P2
2023/07/08 00:01:55;;;;;;;14.00;11.45;;;;;;;19.20;64.83;95090.66;5000265;28;20476;-71
2023/07/08 00:04:20;;;;;;;12.38;11.07;;;;;;;19.27;64.69;95090.78;5016354;28;20483;-71
2023/07/08 00:06:45;;;;;;;13.65;12.20;;;;;;;19.17;64.90;95079.66;5016407;28;20022;-71
2023/07/08 00:09:12;;;;;;;16.42;12.40;;;;;;;19.17;64.57;95074.41;5016583;28;20045;-71
2023/07/08 00:11:37;;;;;;;13.68;12.20;;;;;;;19.16;65.86;95078.00;5016496;28;20053;-71
2023/07/08 00:14:02;;;;;;;15.07;12.63;;;;;;;19.17;65.12;95069.13;5033904;28;20538;-71
2023/07/08 00:16:28;;;;;;;13.73;12.30;;;;;;;19.15;64.66;95056.13;5016389;28;20029;-71
2023/07/08 00:18:53;;;;;;;14.55;13.07;;;;;;;19.09;64.84;95045.50;4999912;28;20048;-71
2023/07/08 00:21:19;;;;;;;14.10;12.10;;;;;;;19.19;65.13;95051.31;5033937;28;20017;-71
2023/07/08 00:23:48;;;;;;;14.60;12.45;;;;;;;19.22;65.12;95052.78;5000062;28;20472;-71
2023/07/08 00:26:19;;;;;;;14.73;12.70;;;;;;;19.18;65.05;95050.50;4983861;28;20044;-71
2023/07/08 00:28:45;;;;;;;14.27;12.73;;;;;;;19.24;64.64;95056.09;5000175;28;20047;-71
2023/07/08 00:31:10;;;;;;;15.15;13.20;;;;;;;19.08;64.71;95049.09;5013092;28;20034;-71
2023/07/08 00:33:35;;;;;;;15.02;13.52;;;;;;;19.04;65.25;95042.56;5031868;28;20431;-72
2023/07/08 00:36:01;;;;;;;15.43;13.30;;;;;;;18.99;65.37;95056.22;5014232;28;20092;-71
2023/07/08 00:38:27;;;;;;;14.85;13.25;;;;;;;18.88;65.51;95049.53;5031840;28;20034;-71
2023/07/08 00:40:58;;;;;;;14.73;12.98;;;;;;;18.86;65.58;95053.31;4998229;28;20025;-71
2023/07/08 00:44:02;;;;;;;15.55;13.95;;;;;;;18.91;65.64;95056.25;5015874;28;20065;-71
2023/07/08 00:46:29;;;;;;;14.20;12.70;;;;;;;18.90;65.29;95058.09;5015602;28;20164;-71
2023/07/08 00:49:06;;;;;;;14.20;12.80;;;;;;;18.76;65.65;95050.91;5015492;28;20029;-71
2023/07/08 00:51:31;;;;;;;15.18;13.05;;;;;;;18.85;65.84;95046.44;5015672;28;20033;-71
2023/07/08 00:53:57;;;;;;;15.80;13.32;;;;;;;18.95;65.84;95041.78;4983304;28;20468;-71
2023/07/08 00:56:26;;;;;;;14.50;13.02;;;;;;;18.93;65.62;95038.50;5031140;28;20210;-71
2023/07/08 00:58:58;;;;;;;15.23;13.60;;;;;;;19.01;65.09;95038.44;5032414;28;20487;-71
2023/07/08 01:01:23;;;;;;;13.88;12.48;;;;;;;18.79;65.80;95031.34;4999160;28;20120;-71
2023/07/08 01:03:54;;;;;;;15.45;13.35;;;;;;;18.74;66.05;95016.06;5015492;28;20522;-71
2023/07/08 01:06:19;;;;;;;;;;;;;;;18.54;66.96;95011.19;4999859;28;20128;-71
2023/07/08 01:08:45;;;;;;;13.55;12.23;;;;;;;18.71;66.20;95022.44;4998993;28;20020;-71
2023/07/08 01:11:11;;;;;;;13.70;12.40;;;;;;;18.59;66.48;95004.59;4999104;28;20087;-71
2023/07/08 01:13:40;;;;;;;15.75;12.73;;;;;;;18.64;65.95;95011.00;5015255;28;20451;-71
2023/07/08 01:16:05;;;;;;;13.48;12.07;;;;;;;18.74;65.92;95008.97;4999201;28;20029;-71
2023/07/08 01:18:31;;;;;;;13.52;12.20;;;;;;;18.61;66.09;95008.69;4982647;28;20029;-71
2023/07/08 01:21:01;;;;;;;15.60;12.80;;;;;;;18.51;66.76;95008.09;4998783;28;20029;-71
2023/07/08 01:23:27;;;;;;;13.93;12.52;;;;;;;18.48;66.78;95011.06;4998823;28;20064;-71
2023/07/08 01:25:52;;;;;;;14.05;12.65;;;;;;;18.51;66.73;95019.41;4998891;28;20029;-71
2023/07/08 01:28:18;;;;;;;13.55;12.02;;;;;;;18.55;66.91;95009.38;4998757;28;20033;-71
2023/07/08 01:30:43;;;;;;;14.10;12.70;;;;;;;18.46;67.06;95011.22;5014950;28;20407;-71
2023/07/08 01:33:16;;;;;;;17.70;12.88;;;;;;;18.43;67.08;95018.63;4998597;28;20040;-71
2023/07/08 01:35:41;;;;;;;13.48;12.00;;;;;;;18.32;67.41;95011.94;4999257;28;20021;-71
2023/07/08 01:38:08;;;;;;;13.80;12.50;;;;;;;18.35;67.20;95008.13;5032611;28;20507;-71
2023/07/08 01:40:35;;;;;;;13.52;12.20;;;;;;;18.33;67.34;94996.97;5013896;28;20030;-71
2023/07/08 01:43:01;;;;;;;13.80;12.35;;;;;;;18.44;66.76;94997.44;5014774;28;20041;-71
2023/07/08 01:45:37;;;;;;;13.57;11.82;;;;;;;18.42;66.66;95009.13;4998326;28;20030;-71
2023/07/08 01:48:05;;;;;;;14.25;12.70;;;;;;;18.43;66.83;95013.38;4998522;28;20041;-71
2023/07/08 01:50:31;;;;;;;12.75;11.52;;;;;;;18.36;66.78;95002.72;5014788;28;20416;-71
2023/07/08 01:52:57;;;;;;;13.27;11.88;;;;;;;18.43;66.66;95018.63;4998057;28;20041;-71
2023/07/08 01:55:24;;;;;;;13.82;12.32;;;;;;;18.30;66.62;95006.84;4982080;28;20033;-71
2023/07/08 01:57:51;;;;;;;12.73;11.52;;;;;;;18.45;66.56;95006.94;4998235;28;20033;-71
2023/07/08 02:00:16;;;;;;;12.35;11.15;;;;;;;18.37;66.36;94998.28;5014307;28;20025;-71
2023/07/08 02:02:41;;;;;;;13.13;11.50;;;;;;;18.46;66.20;94998.06;4997949;28;20045;-71
2023/07/08 02:05:07;;;;;;;13.18;11.93;;;;;;;18.42;66.54;95011.75;5006785;28;20049;-71
2023/07/08 02:07:33;;;;;;;12.85;11.57;;;;;;;18.30;66.59;95003.38;4994698;28;20026;-71
2023/07/08 02:09:58;;;;;;;15.48;12.48;;;;;;;18.37;66.65;95012.25;4994337;28;20034;-71
2023/07/08 02:12:24;;;;;;;11.95;10.85;;;;;;;18.39;66.52;95006.81;4994609;28;20677;-71
2023/07/08 02:14:49;;;;;;;11.90;10.75;;;;;;;18.52;66.29;95009.72;4994324;28;20041;-71
2023/07/08 02:17:16;;;;;;;12.63;11.32;;;;;;;18.40;66.87;95019.78;5012058;28;20022;-71
2023/07/08 02:19:42;;;;;;;11.77;10.60;;;;;;;18.54;66.50;95015.63;4994320;28;20041;-72
2023/07/08 02:22:08;;;;;;;12.00;10.85;;;;;;;18.59;66.66;95023.81;4961993;28;20510;-71
2023/07/08 02:24:33;;;;;;;12.93;11.48;;;;;;;18.24;67.04;95020.66;5012325;28;20042;-71
2023/07/08 02:26:59;;;;;;;14.13;10.75;;;;;;;18.41;67.05;95036.38;4978039;28;20030;-71
2023/07/08 02:29:25;;;;;;;12.75;11.40;;;;;;;18.23;67.92;95034.78;4978420;28;20403;-71
2023/07/08 02:31:50;;;;;;;12.15;10.95;;;;;;;18.30;67.24;95035.78;5011796;28;20100;-72
2023/07/08 02:34:15;;;;;;;12.02;10.68;;;;;;;18.23;67.39;95028.72;4978073;28;20034;-71
2023/07/08 02:36:41;;;;;;;11.75;10.45;;;;;;;18.29;67.39;95046.44;4994355;28;20034;-71
2023/07/08 02:39:06;;;;;;;11.93;10.73;;;;;;;18.27;67.35;95043.97;4993933;28;20045;-71
2023/07/08 02:41:32;;;;;;;11.50;10.32;;;;;;;18.25;67.10;95056.50;4977867;28;20413;-71
2023/07/08 02:43:57;;;;;;;12.18;10.98;;;;;;;18.15;67.23;95049.78;4977845;28;20415;-71
2023/07/08 02:46:22;;;;;;;10.98;9.88;;;;;;;18.15;67.50;95057.66;4977724;28;20033;-70
2023/07/08 02:48:48;;;;;;;11.18;10.10;;;;;;;18.16;67.58;95048.78;5010222;28;20037;-71
2023/07/08 02:51:13;;;;;;;11.45;10.23;;;;;;;18.11;67.76;95046.66;5010251;28;20030;-70
2023/07/08 02:53:39;;;;;;;11.85;10.55;;;;;;;17.76;67.16;94985.59;4993923;28;20515;-70
2023/07/08 02:56:04;;;;;;;11.93;10.60;;;;;;;18.13;67.47;95047.31;4993765;28;20026;-70
2023/07/08 02:58:29;;;;;;;11.60;10.40;;;;;;;18.33;66.68;95060.06;5011480;28;20041;-70
2023/07/08 03:00:55;;;;;;;12.02;10.60;;;;;;;18.30;67.42;95062.06;4993760;28;20026;-70
2023/07/08 03:03:21;;;;;;;11.15;10.07;;;;;;;18.29;67.15;95063.03;4977676;28;20459;-70
2023/07/08 03:05:55;;;;;;;12.35;10.73;;;;;;;18.31;67.05;95061.06;4977357;28;20050;-70
2023/07/08 03:08:21;;;;;;;11.68;10.57;;;;;;;18.21;67.23;95068.31;5011556;28;20034;-71
2023/07/08 03:11:03;;;;;;;12.20;11.05;;;;;;;18.18;67.46;95063.41;5011144;28;20064;-70
2023/07/08 03:13:29;;;;;;;11.73;10.63;;;;;;;18.18;67.36;95058.13;4993707;28;20038;-71
2023/07/08 03:15:54;;;;;;;11.77;10.43;;;;;;;18.25;67.43;95064.38;4961228;28;20052;-70
2023/07/08 03:18:21;;;;;;;11.20;10.20;;;;;;;18.09;67.63;95059.97;4961342;28;20088;-70
2023/07/08 03:20:47;;;;;;;11.30;10.20;;;;;;;18.09;67.52;95059.16;4993487;28;20108;-70
2023/07/08 03:23:13;;;;;;;11.15;10.05;;;;;;;18.21;67.38;95057.81;4976975;28;20045;-70
2023/07/08 03:25:38;;;;;;;11.48;10.38;;;;;;;18.12;68.51;95063.25;4993441;28;20408;-70
2023/07/08 03:28:07;;;;;;;11.73;10.43;;;;;;;18.18;68.00;95068.66;4977320;28;20492;-70
2023/07/08 03:30:33;;;;;;;11.88;10.50;;;;;;;18.07;68.06;95064.56;5011003;28;20038;-70
2023/07/08 03:32:59;;;;;;;10.57;9.57;;;;;;;18.17;68.04;95061.78;4960991;28;20115;-70
2023/07/08 03:35:24;;;;;;;10.90;9.45;;;;;;;18.16;67.46;95054.84;5009590;28;20112;-70
2023/07/08 03:37:50;;;;;;;10.82;9.82;;;;;;;18.33;67.02;95054.81;4977232;28;20128;-70
2023/07/08 03:40:16;;;;;;;11.13;9.50;;;;;;;18.47;67.05;95056.75;5010792;28;20044;-70
2023/07/08 03:42:41;;;;;;;10.00;9.00;;;;;;;18.26;67.53;95039.72;5011114;28;20038;-70
2023/07/08 03:45:07;;;;;;;9.90;8.90;;;;;;;18.04;68.07;95028.09;5010829;28;20538;-70
2023/07/08 03:47:32;;;;;;;9.90;8.95;;;;;;;18.30;67.47;95038.41;4960846;28;20030;-70
2023/07/08 03:49:58;;;;;;;13.63;9.15;;;;;;;18.04;68.78;95036.00;4993446;28;20053;-70
2023/07/08 03:52:23;;;;;;;10.77;9.70;;;;;;;18.22;68.26;95038.44;4977090;28;20037;-70
2023/07/08 03:54:49;;;;;;;9.38;8.52;;;;;;;18.18;68.87;95037.09;5010658;28;20045;-70
2023/07/08 03:57:14;;;;;;;11.15;9.60;;;;;;;18.02;68.71;95018.75;4993269;28;20415;-70
2023/07/08 03:59:39;;;;;;;10.45;9.43;;;;;;;18.24;69.70;95046.94;4993209;28;20097;-70
2023/07/08 04:02:05;;;;;;;10.85;9.23;;;;;;;18.31;69.15;95039.22;4977019;28;20034;-70
2023/07/08 04:04:30;;;;;;;9.50;8.50;;;;;;;18.23;69.33;95033.97;4995276;28;20038;-71
2023/07/08 04:06:56;;;;;;;9.90;8.90;;;;;;;18.18;69.87;95039.75;5012646;28;20030;-70
2023/07/08 04:09:21;;;;;;;12.07;8.88;;;;;;;18.44;68.45;95038.66;4996521;28;20495;-70
2023/07/08 04:11:47;;;;;;;12.68;8.63;;;;;;;18.71;68.76;95050.56;5012706;28;20397;-70
2023/07/08 04:14:13;;;;;;;11.30;8.20;;;;;;;19.04;66.44;95053.91;5030668;28;20041;-70
2023/07/08 04:16:46;;;;;;;10.55;8.23;;;;;;;19.82;62.69;95044.16;5012781;28;20105;-70
2023/07/08 04:19:14;;;;;;;8.05;7.25;;;;;;;20.42;61.62;95053.78;4997136;28;20415;-70
2023/07/08 04:21:40;;;;;;;9.85;7.40;;;;;;;20.53;60.92;95056.00;5012842;28;20033;-70
2023/07/08 04:24:05;;;;;;;7.78;6.68;;;;;;;21.20;58.79;95035.66;5012772;28;20059;-70
2023/07/08 04:26:35;;;;;;;7.68;6.97;;;;;;;21.66;57.85;95051.19;5012593;28;20034;-70
2023/07/08 04:29:01;;;;;;;8.63;6.93;;;;;;;21.40;58.15;95047.28;5013334;28;20083;-70
2023/07/08 04:31:26;;;;;;;8.45;7.22;;;;;;;21.94;57.00;95038.00;5012479;28;20488;-70
2023/07/08 04:33:51;;;;;;;7.18;6.43;;;;;;;22.37;55.08;95045.88;4997083;28;20120;-71
2023/07/08 04:36:17;;;;;;;9.50;6.50;;;;;;;22.30;55.02;95040.50;5016028;28;20026;-71
2023/07/08 04:38:46;;;;;;;9.40;6.50;;;;;;;22.76;54.18;95031.19;5015920;28;20041;-71
2023/07/08 04:41:11;;;;;;;7.70;6.65;;;;;;;23.32;53.75;95048.75;5016477;28;20028;-71
2023/07/08 04:43:38;;;;;;;8.18;6.65;;;;;;;22.87;53.35;95058.94;5015939;28;20116;-71
2023/07/08 04:46:04;;;;;;;8.00;6.70;;;;;;;23.37;52.68;95043.63;5033418;28;20037;-71
2023/07/08 04:48:29;;;;;;;8.15;5.80;;;;;;;23.20;52.67;95044.00;4999479;28;20037;-71
2023/07/08 04:50:55;;;;;;;6.78;5.90;;;;;;;22.49;54.14;95048.78;5033340;28;20029;-71
2023/07/08 04:53:20;;;;;;;7.18;6.55;;;;;;;22.31;53.99;95043.97;5032138;28;20044;-71
2023/07/08 04:55:53;;;;;;;7.72;6.85;;;;;;;22.15;54.78;95047.72;5033217;28;20052;-71
2023/07/08 04:58:18;;;;;;;8.25;6.65;;;;;;;21.81;55.14;95048.44;5015671;28;20034;-71
2023/07/08 05:00:43;;;;;;;9.10;7.35;;;;;;;21.57;56.31;95058.44;4999115;28;20396;-70
2023/07/08 05:03:09;;;;;;;8.13;6.65;;;;;;;21.34;56.84;95057.75;5015472;28;20034;-71
2023/07/08 05:05:34;;;;;;;7.25;6.55;;;;;;;21.32;57.09;95065.06;4999024;28;20041;-71
2023/07/08 05:08:00;;;;;;;7.53;6.65;;;;;;;21.52;56.57;95070.56;5015443;28;20033;-70
2023/07/08 05:10:25;;;;;;;9.27;7.05;;;;;;;21.40;56.59;95054.41;4999169;28;20033;-71
2023/07/08 05:12:51;;;;;;;9.30;6.60;;;;;;;21.56;56.25;95056.81;5033042;28;20033;-71
2023/07/08 05:15:16;;;;;;;7.65;6.85;;;;;;;21.53;55.97;95066.91;5015277;28;20091;-70
2023/07/08 05:17:42;;;;;;;8.95;7.28;;;;;;;21.58;56.21;95059.25;5015258;28;20458;-70
2023/07/08 05:20:09;;;;;;;8.55;6.28;;;;;;;21.73;56.51;95065.28;5015120;28;20030;-71
2023/07/08 05:22:34;;;;;;;7.55;6.70;;;;;;;21.79;56.51;95072.44;5015286;28;20056;-71
2023/07/08 05:25:00;;;;;;;7.72;6.93;;;;;;;21.68;56.44;95070.31;4998855;28;20075;-70
2023/07/08 05:27:25;;;;;;;7.63;6.72;;;;;;;21.61;56.28;95074.72;4998756;28;20415;-71
2023/07/08 05:29:51;;;;;;;9.15;7.00;;;;;;;21.58;55.83;95069.81;5032593;28;20507;-70
2023/07/08 05:32:16;;;;;;;8.05;6.60;;;;;;;21.43;57.09;95072.53;4998595;28;20041;-71
2023/07/08 05:34:42;;;;;;;7.25;6.55;;;;;;;21.67;56.54;95089.00;4998592;28;20116;-71
2023/07/08 05:37:08;;;;;;;9.48;6.70;;;;;;;21.53;56.23;95077.47;5014795;28;20025;-70
2023/07/08 05:39:34;;;;;;;7.35;6.63;;;;;;;21.26;56.14;95016.44;5014886;28;20038;-70
2023/07/08 05:41:59;;;;;;;10.82;6.68;;;;;;;21.77;55.92;95074.47;5031178;28;20112;-70
2023/07/08 05:44:25;;;;;;;8.52;6.07;;;;;;;21.82;54.59;95064.13;5032408;28;20060;-71
2023/07/08 05:46:50;;;;;;;7.18;6.07;;;;;;;22.04;55.70;95070.22;5014583;28;20025;-71
2023/07/08 05:49:16;;;;;;;7.80;6.30;;;;;;;22.16;55.29;95077.63;4998532;28;20049;-71
2023/07/08 05:51:43;;;;;;;7.18;6.00;;;;;;;22.25;55.26;95082.59;5014475;28;20017;-72
2023/07/08 05:54:09;;;;;;;7.30;6.03;;;;;;;22.52;54.73;95093.38;5014493;28;20033;-70
2023/07/08 05:56:34;;;;;;;6.32;5.72;;;;;;;22.58;53.73;95089.94;5014497;28;20026;-71
2023/07/08 05:59:00;;;;;;;7.32;5.72;;;;;;;22.83;52.93;95094.78;4998080;28;20396;-70
2023/07/08 06:01:25;;;;;;;7.05;6.13;;;;;;;22.83;52.36;95094.78;5014533;28;20490;-70
2023/07/08 06:03:50;;;;;;;7.43;5.35;;;;;;;22.64;52.24;95101.59;4998106;28;20463;-71
2023/07/08 06:06:16;;;;;;;9.23;5.25;;;;;;;22.53;52.67;95106.41;4997746;28;20050;-70
2023/07/08 06:08:42;;;;;;;7.63;5.40;;;;;;;22.37;53.31;95105.88;4994770;28;20428;-70
2023/07/08 06:11:07;;;;;;;6.50;5.53;;;;;;;22.22;53.13;95104.16;4994698;28;20455;-70
2023/07/08 06:13:33;;;;;;;6.15;5.47;;;;;;;22.43;53.38;95102.50;4978492;28;20041;-70
2023/07/08 06:15:58;;;;;;;7.95;5.88;;;;;;;22.48;53.50;95100.06;4994418;28;20435;-71
2023/07/08 06:18:23;;;;;;;7.45;5.68;;;;;;;22.74;52.53;95094.13;5011838;28;20044;-70
2023/07/08 06:20:56;;;;;;;6.22;4.95;;;;;;;22.73;52.65;95106.56;4994293;28;20056;-70
2023/07/08 06:23:21;;;;;;;9.10;5.80;;;;;;;22.69;52.14;95107.94;4978653;28;20033;-71
2023/07/08 06:25:47;;;;;;;8.15;5.82;;;;;;;22.71;52.92;95124.44;5011820;28;20169;-71
2023/07/08 06:28:12;;;;;;;6.85;5.70;;;;;;;22.46;52.69;95118.78;4994447;28;20042;-71
2023/07/08 06:30:38;;;;;;;9.57;5.78;;;;;;;22.32;52.94;95116.25;4994256;28;20026;-71
2023/07/08 06:33:03;;;;;;;5.82;5.22;;;;;;;22.23;52.71;95116.41;4978032;28;20061;-71
2023/07/08 06:35:29;;;;;;;5.90;5.15;;;;;;;22.21;53.44;95102.53;4994497;28;20403;-70
2023/07/08 06:37:54;;;;;;;11.20;5.70;;;;;;;22.10;54.05;95110.97;4978046;28;20044;-71
2023/07/08 06:40:20;;;;;;;6.22;5.63;;;;;;;22.05;54.24;95108.06;4994025;28;20050;-70
2023/07/08 06:42:45;;;;;;;6.25;5.53;;;;;;;22.01;54.19;95112.09;4977841;28;20037;-71
2023/07/08 06:45:11;;;;;;;8.18;5.88;;;;;;;21.99;54.55;95108.84;4994070;28;20030;-71
2023/07/08 06:47:36;;;;;;;8.07;6.13;;;;;;;21.96;54.61;95107.38;4993948;28;20439;-71
2023/07/08 06:50:02;;;;;;;6.72;6.00;;;;;;;22.00;54.62;95099.88;4977914;28;20500;-70
2023/07/08 06:52:33;;;;;;;8.15;5.72;;;;;;;22.03;53.97;95100.31;4993900;28;20034;-71
2023/07/08 06:54:59;;;;;;;7.35;6.05;;;;;;;22.11;54.46;95109.94;5011387;28;20026;-70
2023/07/08 06:57:25;;;;;;;7.43;5.97;;;;;;;22.03;54.07;95115.34;4960757;28;20504;-71
2023/07/08 06:59:50;;;;;;;7.93;6.20;;;;;;;21.77;55.14;95100.09;5011168;28;20053;-70
2023/07/08 07:02:16;;;;;;;6.63;5.68;;;;;;;21.80;54.63;95107.63;4993763;28;20028;-70
2023/07/08 07:04:42;;;;;;;10.05;5.47;;;;;;;21.63;55.56;95093.84;4981544;28;20049;-70
2023/07/08 07:07:07;;;;;;;9.73;5.82;;;;;;;21.84;54.64;95112.38;5013443;28;20029;-71
2023/07/08 07:09:33;;;;;;;7.50;5.55;;;;;;;21.86;55.22;95110.34;5013164;28;20037;-70
2023/07/08 07:11:58;;;;;;;7.65;5.13;;;;;;;21.69;53.74;95110.78;5013340;28;20022;-71
2023/07/08 07:14:24;;;;;;;5.72;5.03;;;;;;;21.53;54.17;95098.63;5031254;28;20067;-71
2023/07/08 07:16:49;;;;;;;6.05;4.90;;;;;;;21.49;54.17;95123.81;4996960;28;20026;-70
2023/07/08 07:19:15;;;;;;;7.18;5.28;;;;;;;21.45;54.07;95133.09;4996640;28;20045;-70
2023/07/08 07:21:40;;;;;;;9.90;7.15;;;;;;;21.39;53.71;95134.66;4996818;28;20030;-70
2023/07/08 07:24:06;;;;;;;9.23;6.35;;;;;;;21.46;54.36;95132.09;5012995;28;20034;-70
2023/07/08 07:26:32;;;;;;;10.63;6.75;;;;;;;21.46;54.25;95129.47;4997188;28;20033;-71
2023/07/08 07:28:58;;;;;;;10.35;6.70;;;;;;;21.44;54.51;95124.34;4996880;28;20082;-70
2023/07/08 07:31:23;;;;;;;7.05;5.97;;;;;;;21.51;53.96;95137.66;5030702;28;20056;-71
2023/07/08 07:33:48;;;;;;;7.90;5.45;;;;;;;21.63;54.37;95139.59;5013032;28;20483;-70
2023/07/08 07:36:14;;;;;;;8.38;6.35;;;;;;;21.68;54.30;95144.34;5030708;28;20091;-71
2023/07/08 07:38:39;;;;;;;7.00;5.60;;;;;;;21.76;54.33;95141.56;5012991;28;20052;-71
2023/07/08 07:41:06;;;;;;;6.43;5.82;;;;;;;21.62;53.79;95150.38;5012930;28;20021;-71
2023/07/08 07:43:33;;;;;;;6.50;5.80;;;;;;;21.57;53.85;95150.94;5013226;28;20037;-71
2023/07/08 07:45:59;;;;;;;6.68;5.97;;;;;;;21.58;53.78;95133.25;5013030;28;20044;-71
2023/07/08 07:48:24;;;;;;;8.77;6.13;;;;;;;21.56;53.52;95146.66;5013037;28;20472;-70
2023/07/08 07:50:51;;;;;;;8.43;6.05;;;;;;;21.69;53.60;95145.97;5012804;28;20043;-71
2023/07/08 07:53:16;;;;;;;7.68;5.45;;;;;;;21.66;52.98;95146.34;5012955;28;20435;-70
2023/07/08 07:55:42;;;;;;;7.20;5.85;;;;;;;21.70;53.15;95131.72;4996426;28;20034;-70
2023/07/08 07:58:07;;;;;;;7.20;5.82;;;;;;;21.75;52.93;95150.50;5012866;28;20087;-71
2023/07/08 08:00:33;;;;;;;6.57;5.53;;;;;;;21.99;52.80;95140.56;5012676;28;20443;-71
2023/07/08 08:02:58;;;;;;;6.70;5.80;;;;;;;22.27;52.94;95143.28;5012781;28;20384;-71
2023/07/08 08:05:24;;;;;;;6.50;5.90;;;;;;;22.46;51.69;95149.75;5030241;28;20422;-71
2023/07/08 08:07:49;;;;;;;8.63;5.70;;;;;;;22.64;51.63;95128.88;5029874;28;20029;-71
2023/07/08 08:10:15;;;;;;;6.15;5.55;;;;;;;22.81;51.11;95129.38;5016462;28;20025;-71
2023/07/08 08:12:41;;;;;;;8.18;5.88;;;;;;;23.10;51.55;95127.53;5016372;28;20555;-71
2023/07/08 08:15:07;;;;;;;5.88;5.22;;;;;;;23.18;50.33;95128.19;5016395;28;20032;-71
2023/07/08 08:17:32;;;;;;;7.60;5.85;;;;;;;23.13;50.48;95130.63;5000156;28;20411;-71
2023/07/08 08:19:57;;;;;;;8.05;5.45;;;;;;;23.18;49.94;95141.44;4999800;28;20396;-71
2023/07/08 08:22:23;;;;;;;9.52;5.50;;;;;;;23.22;49.63;95146.34;5032696;28;20018;-71
2023/07/08 08:24:49;;;;;;;6.25;5.53;;;;;;;23.33;49.12;95132.53;4999714;28;20468;-71
2023/07/08 08:27:14;;;;;;;13.27;5.53;;;;;;;23.32;50.08;95107.06;5033873;28;20033;-71
2023/07/08 08:29:40;;;;;;;6.10;5.50;;;;;;;23.31;49.59;95139.84;5034339;28;20042;-71
2023/07/08 08:32:06;;;;;;;7.50;5.40;;;;;;;23.52;49.63;95137.06;4999767;28;20559;-71
2023/07/08 08:34:31;;;;;;;6.40;5.80;;;;;;;23.73;48.39;95111.44;5034184;28;20419;-71
2023/07/08 08:36:57;;;;;;;6.50;5.50;;;;;;;23.97;48.80;95133.94;4999810;28;20025;-72
2023/07/08 08:39:24;;;;;;;6.38;5.25;;;;;;;24.19;48.90;95121.31;5015965;28;20041;-71
2023/07/08 08:41:49;;;;;;;9.23;5.60;;;;;;;24.45;48.43;95126.63;4999938;28;20022;-71
2023/07/08 08:44:16;;;;;;;5.72;5.20;;;;;;;24.52;46.89;95135.41;4997344;28;20128;-71
2023/07/08 08:46:45;;;;;;;7.18;4.80;;;;;;;24.64;46.01;95129.47;5023326;28;20025;-71
2023/07/08 08:49:39;;;;;;;5.55;4.90;;;;;;;24.59;46.43;95121.31;5013967;28;20087;-71
2023/07/08 08:52:05;;;;;;;7.25;5.40;;;;;;;24.76;46.38;95117.19;5012245;28;20034;-71
2023/07/08 08:54:30;;;;;;;7.15;5.40;;;;;;;24.66;46.75;95114.97;4998254;28;20038;-72
2023/07/08 08:57:11;;;;;;;7.43;5.20;;;;;;;24.75;46.83;95120.88;4999182;28;20506;-71
2023/07/08 08:59:43;;;;;;;10.02;5.10;;;;;;;24.85;46.48;95121.28;5015325;28;20045;-71
2023/07/08 09:02:37;;;;;;;6.60;5.10;;;;;;;24.87;45.50;95129.81;5015610;28;20082;-71
2023/07/08 09:05:07;;;;;;;7.70;5.10;;;;;;;24.83;45.87;95127.81;5004450;28;20064;-71
2023/07/08 09:07:36;;;;;;;6.13;5.53;;;;;;;24.90;46.09;95123.28;4999868;28;20592;-71
2023/07/08 09:10:10;;;;;;;9.05;6.15;;;;;;;24.96;46.18;95122.44;4998537;28;20112;-72
2023/07/08 09:12:35;;;;;;;9.80;5.20;;;;;;;25.09;45.74;95118.94;5015581;28;20022;-71
2023/07/08 09:15:10;;;;;;;6.60;5.75;;;;;;;25.09;46.32;95118.94;4999001;28;20026;-71
2023/07/08 09:17:35;;;;;;;6.68;5.00;;;;;;;24.85;45.15;95118.63;4999748;28;20061;-71
2023/07/08 09:20:23;;;;;;;8.13;5.13;;;;;;;24.75;46.02;95126.19;4981729;28;20038;-71
2023/07/08 09:23:13;;;;;;;7.88;5.10;;;;;;;24.85;46.03;95113.31;5011842;28;20548;-71
2023/07/08 09:25:45;;;;;;;7.05;5.40;;;;;;;24.70;46.22;95115.38;4998539;28;20053;-72
2023/07/08 09:28:13;;;;;;;5.88;4.80;;;;;;;24.96;45.02;95102.03;5015510;28;20476;-72
2023/07/08 09:30:38;;;;;;;6.97;5.60;;;;;;;25.21;45.71;95108.50;4998613;28;20032;-71
2023/07/08 09:33:04;;;;;;;5.72;5.07;;;;;;;25.17;44.90;95118.75;5014991;28;20034;-71
2023/07/08 09:35:38;;;;;;;5.97;5.30;;;;;;;25.31;45.54;95115.00;4998522;28;20052;-71
2023/07/08 09:38:08;;;;;;;5.82;5.00;;;;;;;25.01;44.84;95108.53;5014764;28;20040;-71
2023/07/08 09:40:34;;;;;;;5.68;4.85;;;;;;;25.22;44.64;95094.19;5014860;28;20103;-71
2023/07/08 09:43:36;;;;;;;6.28;5.60;;;;;;;25.50;44.35;95099.97;4995108;28;20467;-71
2023/07/08 09:46:01;;;;;;;5.80;5.20;;;;;;;25.42;44.34;95103.69;4992008;28;20040;-71
2023/07/08 09:48:28;;;;;;;5.85;5.25;;;;;;;25.59;44.08;95100.53;4978620;28;20408;-72
2023/07/08 09:50:55;;;;;;;6.00;5.10;;;;;;;25.55;43.03;95094.84;4998439;28;20562;-72
2023/07/08 09:53:21;;;;;;;7.32;5.22;;;;;;;25.60;44.20;95099.50;5014545;28;20026;-72
2023/07/08 09:55:46;;;;;;;5.28;4.78;;;;;;;25.44;43.85;95090.19;5014440;28;20414;-71
2023/07/08 09:58:16;;;;;;;6.50;4.63;;;;;;;25.68;43.97;95077.97;4998199;28;20419;-72
2023/07/08 10:00:42;;;;;;;7.18;5.18;;;;;;;25.81;43.54;95083.22;5014709;28;20479;-71
2023/07/08 10:03:16;;;;;;;6.03;5.43;;;;;;;25.73;42.45;95091.44;5014325;28;20048;-71
2023/07/08 10:05:42;;;;;;;5.00;4.50;;;;;;;25.74;42.90;95069.16;4998504;28;20052;-72
2023/07/08 10:08:33;;;;;;;5.18;4.68;;;;;;;25.92;43.58;95078.28;4997985;28;20044;-72
2023/07/08 10:11:02;;;;;;;6.75;4.40;;;;;;;25.91;43.62;95084.59;5017001;28;20029;-71
2023/07/08 10:13:41;;;;;;;6.28;4.82;;;;;;;25.99;42.70;95079.03;4998292;28;20041;-72
2023/07/08 10:16:14;;;;;;;4.80;4.20;;;;;;;26.05;43.25;95084.31;4997893;28;20021;-72
2023/07/08 10:18:39;;;;;;;6.63;4.40;;;;;;;25.95;41.61;95078.66;4997801;28;20042;-72
2023/07/08 10:21:08;;;;;;;4.88;4.38;;;;;;;26.13;41.67;95075.22;4997673;28;20025;-72
2023/07/08 10:24:18;;;;;;;6.45;4.60;;;;;;;26.15;42.21;95067.84;5014115;28;20543;-72
2023/07/08 10:26:43;;;;;;;6.32;4.38;;;;;;;26.14;41.89;95065.41;5000832;28;20049;-72
2023/07/08 10:29:34;;;;;;;6.18;4.63;;;;;;;25.96;42.08;95066.16;4994103;28;20465;-72
2023/07/08 10:32:08;;;;;;;5.88;4.70;;;;;;;25.80;42.60;95062.16;4989024;28;20084;-72
2023/07/08 10:34:48;;;;;;;5.10;4.53;;;;;;;26.04;41.86;95060.56;5013107;28;20043;-71
2023/07/08 10:37:29;;;;;;;5.05;4.50;;;;;;;26.14;43.13;95068.88;5013964;28;20366;-70
2023/07/08 10:40:16;;;;;;;4.88;4.40;;;;;;;26.22;42.80;95057.16;5013628;28;20041;-69
2023/07/08 10:43:07;;;;;;;7.57;4.20;;;;;;;26.32;41.80;95056.63;5031333;28;20042;-69
2023/07/08 10:46:04;;;;;;;6.40;3.90;;;;;;;26.47;40.86;95055.28;5013637;28;20053;-69
2023/07/08 10:48:47;;;;;;;4.65;3.80;;;;;;;26.37;41.63;95062.94;5031394;28;20120;-69
2023/07/08 10:51:33;;;;;;;4.30;3.90;;;;;;;26.44;40.60;95054.88;5031208;28;20104;-69
2023/07/08 10:54:25;;;;;;;7.45;4.13;;;;;;;26.41;40.63;95042.84;5031409;28;20042;-69
2023/07/08 10:56:55;;;;;;;6.53;3.50;;;;;;;26.57;41.23;95033.47;4993350;28;20067;-69
2023/07/08 10:59:24;;;;;;;;;;;;;;;26.44;41.54;95050.38;5014081;28;20041;-69
2023/07/08 11:02:21;;;;;;;4.53;4.03;;;;;;;26.61;41.18;95041.84;5013408;28;20314;-72
2023/07/08 11:05:05;;;;;;;4.28;3.60;;;;;;;26.48;40.68;95040.91;4996550;28;20427;-71
2023/07/08 11:07:41;;;;;;;5.70;3.72;;;;;;;26.52;40.16;95038.63;4996771;28;20067;-72
2023/07/08 11:10:11;;;;;;;5.55;4.10;;;;;;;26.33;40.98;95028.97;5009841;28;20026;-72
2023/07/08 11:12:47;;;;;;;4.32;3.70;;;;;;;26.55;39.63;95037.38;4996705;28;20042;-72
2023/07/08 11:15:22;;;;;;;5.07;4.03;;;;;;;26.46;40.15;95032.31;5013524;28;20060;-72
2023/07/08 11:17:51;;;;;;;4.32;3.90;;;;;;;26.38;41.30;95027.28;5013340;28;20030;-72
2023/07/08 11:20:17;;;;;;;4.18;3.70;;;;;;;26.52;41.28;95028.00;5012954;28;20048;-69
2023/07/08 11:22:54;;;;;;;7.00;3.90;;;;;;;26.60;40.17;95030.38;5013207;28;20021;-69
2023/07/08 11:25:21;;;;;;;4.45;3.55;;;;;;;26.68;39.83;95022.06;4997053;28;20104;-69
2023/07/08 11:27:48;;;;;;;5.38;3.83;;;;;;;26.74;40.79;95020.38;4996797;28;20026;-69
2023/07/08 11:30:15;;;;;;;7.93;3.85;;;;;;;26.92;40.24;95012.38;4996941;28;20458;-70
2023/07/08 11:32:42;;;;;;;4.60;3.97;;;;;;;26.99;39.87;95003.47;4996849;28;20040;-69
2023/07/08 11:35:23;;;;;;;4.35;3.95;;;;;;;26.87;39.55;95003.44;4996724;28;20030;-69